createdAt,value
2022-08-18T00:01:14.520Z,13.43
2022-08-18T00:03:57.285Z,5.13
2022-08-18T00:06:30.185Z,6.77
2022-08-18T00:09:02.123Z,4.75
2022-08-18T00:11:41.505Z,4.50
2022-08-18T00:14:21.362Z,6.35
2022-08-18T00:16:50.699Z,5.10
2022-08-18T00:19:17.631Z,9.27
2022-08-18T00:21:44.598Z,7.43
2022-08-18T00:24:11.621Z,8.40
2022-08-18T00:26:38.618Z,8.30
2022-08-18T00:29:05.668Z,3.38
2022-08-18T00:31:33.774Z,5.13
2022-08-18T00:34:01.081Z,6.25
2022-08-18T00:36:28.718Z,4.50
2022-08-18T00:38:55.728Z,7.47
2022-08-18T00:41:26.918Z,5.22
2022-08-18T00:43:58.540Z,8.30
2022-08-18T00:46:29.291Z,3.92
2022-08-18T00:48:58.152Z,4.38
2022-08-18T00:54:14.808Z,5.93
2022-08-18T00:56:51.085Z,5.15
2022-08-18T00:59:26.062Z,4.03
2022-08-18T01:01:55.857Z,4.97
2022-08-18T01:04:38.435Z,5.35
2022-08-18T01:07:18.333Z,4.45
2022-08-18T01:09:45.239Z,4.93
2022-08-18T01:12:44.497Z,4.30
2022-08-18T01:15:00.678Z,4.05
2022-08-18T01:17:46.497Z,4.38
2022-08-18T01:20:37.077Z,4.35
2022-08-18T01:23:16.155Z,4.43
2022-08-18T01:26:05.612Z,4.63
2022-08-18T01:28:35.356Z,5.18
2022-08-18T01:31:03.031Z,4.45
2022-08-18T01:33:39.569Z,4.07
2022-08-18T01:36:18.250Z,5.22
2022-08-18T01:38:48.873Z,7.85
2022-08-18T01:41:26.783Z,6.15
2022-08-18T01:43:57.115Z,5.50
2022-08-18T01:46:24.605Z,6.05
2022-08-18T01:48:51.915Z,4.95
2022-08-18T01:51:20.668Z,5.38
2022-08-18T01:54:06.714Z,5.40
2022-08-18T01:56:33.629Z,6.28
2022-08-18T01:59:00.557Z,6.68
2022-08-18T02:01:33.039Z,8.98
2022-08-18T02:04:33.301Z,7.70
2022-08-18T02:06:56.255Z,9.07
2022-08-18T02:09:24.575Z,9.80
2022-08-18T02:11:53.619Z,8.77
2022-08-18T02:14:25.259Z,9.38
2022-08-18T02:17:01.341Z,9.30
2022-08-18T02:19:44.834Z,8.27
2022-08-18T02:22:14.930Z,7.75
2022-08-18T02:24:42.943Z,7.57
2022-08-18T02:27:11.698Z,7.57
2022-08-18T02:29:39.358Z,7.72
2022-08-18T02:32:07.097Z,8.82
2022-08-18T02:34:34.108Z,9.73
2022-08-18T02:37:01.875Z,7.47
2022-08-18T02:39:30.668Z,7.47
2022-08-18T02:41:57.753Z,8.85
2022-08-18T02:44:24.734Z,7.95
2022-08-18T02:46:56.661Z,6.07
2022-08-18T02:49:23.830Z,6.65
2022-08-18T02:51:52.164Z,6.28
2022-08-18T02:54:23.316Z,6.45
2022-08-18T02:56:51.874Z,5.90
2022-08-18T02:59:27.950Z,5.60
2022-08-18T03:01:58.763Z,6.18
2022-08-18T03:04:30.003Z,6.30
2022-08-18T03:06:59.979Z,8.45
2022-08-18T03:09:27.741Z,6.88
2022-08-18T03:11:54.782Z,6.53
2022-08-18T03:14:21.970Z,6.32
2022-08-18T03:16:53.952Z,6.90
2022-08-18T03:19:28.549Z,6.45
2022-08-18T03:22:02.534Z,6.47
2022-08-18T03:24:31.795Z,6.53
2022-08-18T03:27:00.695Z,8.23
2022-08-18T03:29:32.431Z,6.93
2022-08-18T03:32:02.532Z,8.93
2022-08-18T03:34:30.255Z,8.23
2022-08-18T03:36:57.351Z,9.13
2022-08-18T03:39:25.238Z,7.78
2022-08-18T03:41:58.667Z,8.40
2022-08-18T03:44:31.513Z,8.35
2022-08-18T03:46:59.008Z,14.15
2022-08-18T03:49:27.048Z,13.60
2022-08-18T03:51:54.729Z,8.53
2022-08-18T03:54:22.895Z,12.18
2022-08-18T03:56:50.253Z,10.27
2022-08-18T03:59:20.761Z,10.00
2022-08-18T04:01:49.847Z,9.05
2022-08-18T04:04:21.254Z,8.57
2022-08-18T04:06:55.748Z,7.60
2022-08-18T04:09:24.781Z,8.77
2022-08-18T04:11:52.172Z,8.60
2022-08-18T04:14:21.889Z,9.20
2022-08-18T04:16:49.431Z,9.27
2022-08-18T04:19:26.861Z,8.75
2022-08-18T04:21:57.615Z,9.30
2022-08-18T04:24:26.463Z,7.78
2022-08-18T04:26:56.529Z,8.48
2022-08-18T04:29:23.532Z,8.02
2022-08-18T04:31:51.700Z,12.55
2022-08-18T04:34:20.782Z,9.15
2022-08-18T04:36:48.810Z,8.75
2022-08-18T04:39:15.935Z,9.27
2022-08-18T04:41:44.105Z,8.18
2022-08-18T04:44:12.817Z,9.68
2022-08-18T04:46:43.584Z,9.23
2022-08-18T04:49:12.137Z,9.20
2022-08-18T04:52:30.935Z,10.43
2022-08-18T04:54:30.167Z,12.00
2022-08-18T04:56:57.180Z,11.18
2022-08-18T04:59:25.149Z,9.07
2022-08-18T05:01:52.104Z,8.35
2022-08-18T05:04:19.039Z,9.00
2022-08-18T05:06:46.548Z,8.38
2022-08-18T05:09:16.607Z,6.53
2022-08-18T05:11:50.807Z,7.78
2022-08-18T05:14:18.708Z,7.40
2022-08-18T05:16:48.856Z,8.45
2022-08-18T05:19:23.429Z,7.30
2022-08-18T05:22:00.091Z,7.68
2022-08-18T05:24:36.752Z,8.27
2022-08-18T05:27:07.720Z,7.72
2022-08-18T05:29:41.807Z,6.45
2022-08-18T05:32:40.866Z,6.90
2022-08-18T05:35:16.704Z,6.85
2022-08-18T05:37:53.553Z,7.13
2022-08-18T05:40:24.540Z,8.38
2022-08-18T05:42:51.853Z,6.80
2022-08-18T05:45:20.522Z,7.63
2022-08-18T05:47:47.858Z,6.68
2022-08-18T05:50:19.406Z,7.50
2022-08-18T05:52:55.418Z,7.88
2022-08-18T05:55:56.155Z,7.85
2022-08-18T05:58:33.219Z,6.63
2022-08-18T06:01:18.914Z,7.65
2022-08-18T06:03:57.055Z,6.65
2022-08-18T06:06:29.761Z,6.93
2022-08-18T06:09:13.064Z,7.22
2022-08-18T06:11:40.092Z,7.53
2022-08-18T06:14:07.142Z,6.80
2022-08-18T06:17:04.673Z,10.30
2022-08-18T06:20:02.458Z,7.03
2022-08-18T06:23:05.813Z,6.50
2022-08-18T06:25:43.499Z,8.10
2022-08-18T06:28:16.041Z,7.13
2022-08-18T06:30:42.944Z,6.85
2022-08-18T06:33:09.864Z,8.15
2022-08-18T06:35:45.870Z,6.53
2022-08-18T06:38:37.285Z,6.90
2022-08-18T06:41:40.538Z,7.05
2022-08-18T06:44:49.278Z,7.22
2022-08-18T06:47:31.159Z,5.63
2022-08-18T06:50:11.498Z,6.63
2022-08-18T06:52:51.086Z,6.07
2022-08-18T06:55:31.052Z,5.65
2022-08-18T06:58:01.730Z,6.20
2022-08-18T07:00:32.740Z,5.18
2022-08-18T07:03:07.018Z,5.45
2022-08-18T07:05:36.121Z,5.60
2022-08-18T07:08:22.601Z,5.75
2022-08-18T07:10:53.074Z,5.45
2022-08-18T07:13:20.031Z,4.70
2022-08-18T07:15:48.637Z,4.47
2022-08-18T07:18:26.776Z,3.85
2022-08-18T07:20:58.142Z,4.10
2022-08-18T07:23:38.496Z,3.70
2022-08-18T07:26:10.917Z,3.65
2022-08-18T07:28:39.802Z,3.58
2022-08-18T07:31:25.083Z,3.90
2022-08-18T07:34:04.872Z,3.40
2022-08-18T07:36:47.744Z,2.90
2022-08-18T07:39:31.965Z,3.65
2022-08-18T07:42:53.614Z,3.58
2022-08-18T07:45:45.334Z,2.92
2022-08-18T07:48:37.665Z,3.53
2022-08-18T07:51:23.946Z,3.65
2022-08-18T07:54:01.596Z,3.70
2022-08-18T07:56:50.555Z,3.58
2022-08-18T07:59:25.385Z,6.47
2022-08-18T08:02:32.203Z,3.85
2022-08-18T08:05:35.843Z,3.08
2022-08-18T08:08:29.679Z,3.55
2022-08-18T08:11:17.123Z,4.05
2022-08-18T08:14:13.768Z,3.30
2022-08-18T08:16:51.408Z,3.15
2022-08-18T08:19:59.349Z,3.47
2022-08-18T08:22:43.002Z,3.43
2022-08-18T08:25:46.761Z,2.53
2022-08-18T08:28:55.707Z,2.80
2022-08-18T08:31:37.617Z,2.95
2022-08-18T08:34:26.161Z,2.88
2022-08-18T08:39:41.058Z,2.47
2022-08-18T08:42:31.954Z,2.33
2022-08-18T08:45:06.679Z,2.60
2022-08-18T08:48:15.206Z,2.00
2022-08-18T08:50:49.506Z,2.40
2022-08-18T08:53:38.539Z,1.95
2022-08-18T08:56:17.464Z,1.63
2022-08-18T08:58:59.371Z,1.70
2022-08-18T09:01:38.847Z,2.20
2022-08-18T09:04:16.793Z,2.05
2022-08-18T09:07:12.386Z,2.20
2022-08-18T09:09:54.742Z,1.90
2022-08-18T09:13:00.552Z,1.95
2022-08-18T09:15:41.250Z,2.40
2022-08-18T09:18:26.627Z,2.30
2022-08-18T09:21:31.179Z,2.20
2022-08-18T09:24:33.197Z,2.13
2022-08-18T09:27:16.104Z,2.10
2022-08-18T09:30:05.175Z,1.88
2022-08-18T09:32:59.720Z,2.08
2022-08-18T09:35:52.068Z,1.95
2022-08-18T09:38:45.239Z,2.22
2022-08-18T09:41:33.105Z,2.38
2022-08-18T09:44:17.866Z,1.90
2022-08-18T09:46:57.379Z,1.52
2022-08-18T09:49:27.205Z,2.03
2022-08-18T09:52:00.541Z,2.22
2022-08-18T09:54:33.996Z,2.47
2022-08-18T09:57:03.717Z,1.73
2022-08-18T09:59:35.258Z,2.38
2022-08-18T10:02:14.226Z,2.10
2022-08-18T10:04:50.795Z,2.60
2022-08-18T10:07:43.192Z,2.83
2022-08-18T10:11:00.805Z,1.75
2022-08-18T10:14:00.331Z,1.90
2022-08-18T10:17:13.361Z,1.70
2022-08-18T10:19:58.794Z,1.95
2022-08-18T10:22:41.667Z,1.58
2022-08-18T10:25:22.960Z,2.20
2022-08-18T10:27:56.936Z,2.03
2022-08-18T10:30:34.631Z,2.33
2022-08-18T10:33:18.010Z,1.95
2022-08-18T10:36:00.261Z,1.70
2022-08-18T10:38:45.916Z,1.60
2022-08-18T10:41:37.558Z,1.90
2022-08-18T10:44:28.139Z,1.60
2022-08-18T10:46:59.029Z,1.60
2022-08-18T10:49:29.261Z,1.20
2022-08-18T10:52:28.126Z,1.60
2022-08-18T10:55:10.326Z,1.67
2022-08-18T10:57:56.419Z,1.50
2022-08-18T11:00:39.704Z,1.80
2022-08-18T11:06:26.091Z,1.33
2022-08-18T11:09:00.055Z,1.70
2022-08-18T11:11:53.619Z,1.65
2022-08-18T11:15:01.506Z,1.77
2022-08-18T11:18:30.144Z,1.90
2022-08-18T11:21:42.197Z,1.67
2022-08-18T11:24:21.314Z,1.92
2022-08-18T11:26:52.611Z,1.63
2022-08-18T11:29:38.608Z,1.58
2022-08-18T11:32:09.268Z,1.92
2022-08-18T11:35:10.936Z,1.33
2022-08-18T11:37:49.773Z,1.50
2022-08-18T11:41:09.502Z,1.33
2022-08-18T11:43:40.936Z,1.70
2022-08-18T11:46:28.272Z,1.55
2022-08-18T11:51:33.544Z,1.88
2022-08-18T11:54:23.585Z,1.50
2022-08-18T11:56:52.038Z,1.55
2022-08-18T11:59:52.702Z,1.65
2022-08-18T12:02:20.379Z,1.90
2022-08-18T12:04:55.011Z,1.65
2022-08-18T12:07:33.942Z,0.90
2022-08-18T12:10:26.074Z,1.80
2022-08-18T12:12:57.701Z,2.00
2022-08-18T12:15:43.857Z,1.63
2022-08-18T12:18:26.267Z,1.60
2022-08-18T12:20:58.409Z,1.75
2022-08-18T12:23:25.809Z,1.80
2022-08-18T12:25:52.801Z,1.60
2022-08-18T12:28:22.526Z,1.63
2022-08-18T12:30:57.146Z,1.98
2022-08-18T12:33:25.662Z,1.75
2022-08-18T12:36:06.299Z,1.48
2022-08-18T12:38:36.519Z,1.75
2022-08-18T12:41:05.587Z,2.00
2022-08-18T12:43:32.791Z,2.20
2022-08-18T12:46:01.336Z,2.20
2022-08-18T12:48:31.763Z,1.77
2022-08-18T12:51:00.878Z,1.92
2022-08-18T12:56:25.020Z,1.50
2022-08-18T12:58:52.956Z,1.83
2022-08-18T13:01:20.874Z,1.85
2022-08-18T13:06:54.138Z,1.58
2022-08-18T13:09:52.499Z,1.60
2022-08-18T13:12:17.440Z,2.00
2022-08-18T13:14:45.762Z,1.42
2022-08-18T13:17:29.440Z,1.70
2022-08-18T13:20:01.882Z,1.30
2022-08-18T13:22:32.787Z,2.08
2022-08-18T13:25:07.472Z,1.98
2022-08-18T13:27:38.432Z,1.63
2022-08-18T13:30:30.328Z,1.50
2022-08-18T13:33:33.959Z,1.60
2022-08-18T13:35:54.044Z,1.48
2022-08-18T13:38:27.245Z,2.13
2022-08-18T13:40:59.232Z,1.77
2022-08-18T13:43:35.666Z,1.40
2022-08-18T13:46:04.053Z,1.52
2022-08-18T13:48:32.211Z,1.60
2022-08-18T13:51:01.921Z,1.85
2022-08-18T13:53:31.674Z,1.77
2022-08-18T13:55:58.986Z,1.80
2022-08-18T13:58:27.357Z,1.67
2022-08-18T14:01:22.803Z,1.95
2022-08-18T14:03:49.972Z,1.63
2022-08-18T14:06:22.496Z,1.60
2022-08-18T14:08:51.976Z,1.77
2022-08-18T14:11:20.519Z,1.98
2022-08-18T14:13:47.540Z,2.33
2022-08-18T14:16:16.138Z,1.90
2022-08-18T14:19:10.103Z,1.23
2022-08-18T14:22:02.538Z,1.55
2022-08-18T14:24:49.469Z,1.48
2022-08-18T14:27:18.255Z,1.92
2022-08-18T14:29:48.283Z,1.60
2022-08-18T14:32:28.610Z,2.10
2022-08-18T14:35:21.775Z,1.42
2022-08-18T14:37:49.540Z,2.13
2022-08-18T14:40:17.621Z,1.73
2022-08-18T14:42:54.443Z,1.83
2022-08-18T14:45:34.292Z,1.67
2022-08-18T14:48:07.405Z,1.95
2022-08-18T14:50:35.737Z,1.73
2022-08-18T14:53:04.666Z,1.52
2022-08-18T14:55:32.387Z,1.60
2022-08-18T14:58:01.389Z,1.95
2022-08-18T15:00:30.170Z,2.20
2022-08-18T15:02:59.714Z,2.50
2022-08-18T15:05:27.406Z,1.90
2022-08-18T15:07:56.501Z,1.63
2022-08-18T15:10:28.068Z,3.00
2022-08-18T15:12:55.710Z,2.10
2022-08-18T15:15:22.955Z,2.50
2022-08-18T15:17:52.588Z,2.05
2022-08-18T15:23:09.747Z,2.42
2022-08-18T15:25:44.804Z,2.65
2022-08-18T15:28:19.258Z,1.83
2022-08-18T15:30:51.043Z,2.33
2022-08-18T15:33:23.705Z,1.92
2022-08-18T15:35:53.722Z,1.80
2022-08-18T15:38:23.202Z,2.08
2022-08-18T15:41:03.337Z,2.10
2022-08-18T15:43:34.007Z,2.47
2022-08-18T15:46:01.363Z,1.92
2022-08-18T15:48:30.661Z,2.28
2022-08-18T15:50:57.603Z,2.50
2022-08-18T15:53:40.005Z,2.03
2022-08-18T15:56:20.623Z,2.35
2022-08-18T15:58:49.281Z,2.65
2022-08-18T16:01:30.498Z,1.95
2022-08-18T16:04:01.430Z,2.65
2022-08-18T16:06:32.118Z,2.75
2022-08-18T16:09:00.683Z,2.20
2022-08-18T16:11:29.832Z,2.65
2022-08-18T16:14:00.681Z,2.78
2022-08-18T16:16:29.001Z,4.38
2022-08-18T16:19:04.068Z,3.30
2022-08-18T16:21:31.114Z,3.20
2022-08-18T16:23:58.451Z,3.38
2022-08-18T16:26:25.541Z,3.35
2022-08-18T16:28:53.302Z,3.47
2022-08-18T16:31:26.710Z,2.97
2022-08-18T16:33:55.633Z,3.50
2022-08-18T16:36:27.089Z,6.10
2022-08-18T16:38:58.199Z,3.70
2022-08-18T16:41:26.456Z,2.72
2022-08-18T16:43:53.801Z,2.55
2022-08-18T16:46:26.394Z,12.00
2022-08-18T16:48:58.136Z,13.60
2022-08-18T16:51:28.383Z,10.38
2022-08-18T16:53:55.660Z,19.33
2022-08-18T16:56:27.058Z,2.93
2022-08-18T16:59:12.764Z,5.25
2022-08-18T17:01:59.246Z,4.40
2022-08-18T17:04:29.663Z,45.50
2022-08-18T17:06:57.421Z,14.07
2022-08-18T17:09:25.144Z,5.63
2022-08-18T17:11:53.441Z,4.25
2022-08-18T17:16:54.955Z,2.70
2022-08-18T17:19:24.020Z,3.35
2022-08-18T17:21:51.094Z,2.97
2022-08-18T17:24:27.686Z,2.42
2022-08-18T17:27:26.075Z,2.85
2022-08-18T17:29:53.770Z,4.28
2022-08-18T17:32:20.707Z,4.43
2022-08-18T17:34:54.451Z,5.07
2022-08-18T17:37:24.134Z,4.13
2022-08-18T17:39:55.590Z,4.00
2022-08-18T17:42:29.238Z,3.47
2022-08-18T17:44:59.522Z,3.85
2022-08-18T17:47:35.803Z,3.40
2022-08-18T17:50:27.438Z,4.00
2022-08-18T17:53:05.635Z,3.53
2022-08-18T17:55:50.754Z,3.05
2022-08-18T17:58:32.433Z,3.40
2022-08-18T18:01:01.478Z,5.75
2022-08-18T18:03:28.607Z,3.25
2022-08-18T18:06:03.649Z,3.95
2022-08-18T18:08:52.673Z,3.75
2022-08-18T18:11:31.335Z,4.07
2022-08-18T18:14:00.145Z,5.82
2022-08-18T18:16:35.588Z,3.97
2022-08-18T18:19:08.103Z,5.15
2022-08-18T18:21:53.606Z,4.47
2022-08-18T18:24:32.227Z,4.20
2022-08-18T18:26:59.634Z,3.95
2022-08-18T18:29:38.182Z,6.00
2022-08-18T18:32:17.567Z,6.38
2022-08-18T18:34:46.448Z,6.47
2022-08-18T18:37:26.513Z,4.72
2022-08-18T18:40:00.516Z,4.28
2022-08-18T18:42:33.912Z,7.45
2022-08-18T18:45:04.262Z,7.63
2022-08-18T18:47:58.687Z,4.55
2022-08-18T18:50:31.338Z,4.60
2022-08-18T18:53:21.619Z,4.80
2022-08-18T18:56:29.361Z,3.67
2022-08-18T18:59:13.037Z,6.47
2022-08-18T19:02:32.897Z,4.00
2022-08-18T19:05:07.875Z,4.45
2022-08-18T19:08:04.006Z,7.40
2022-08-18T19:10:57.260Z,7.70
2022-08-18T19:13:32.719Z,3.97
2022-08-18T19:16:23.214Z,4.43
2022-08-18T19:19:36.346Z,4.60
2022-08-18T19:22:05.511Z,4.38
2022-08-18T19:24:34.699Z,3.50
2022-08-18T19:27:04.568Z,2.92
2022-08-18T19:29:40.147Z,3.83
2022-08-18T19:32:24.309Z,3.17
2022-08-18T19:34:52.685Z,3.10
2022-08-18T19:37:43.116Z,3.20
2022-08-18T19:40:21.540Z,3.42
2022-08-18T19:43:12.596Z,3.05
2022-08-18T19:46:03.472Z,3.45
2022-08-18T19:48:42.142Z,3.20
2022-08-18T19:51:20.670Z,3.42
2022-08-18T19:56:49.386Z,3.30
2022-08-18T19:59:33.944Z,2.20
2022-08-18T20:02:39.786Z,3.25
2022-08-18T20:05:38.597Z,2.80
2022-08-18T20:08:27.191Z,2.83
2022-08-18T20:11:02.816Z,2.92
2022-08-18T20:13:39.264Z,2.85
2022-08-18T20:18:44.141Z,2.45
2022-08-18T20:21:17.446Z,2.75
2022-08-18T20:23:59.677Z,2.72
2022-08-18T20:26:37.797Z,4.28
2022-08-18T20:29:05.639Z,3.38
2022-08-18T20:31:49.415Z,3.10
2022-08-18T20:34:18.858Z,2.80
2022-08-18T20:36:47.257Z,2.55
2022-08-18T20:39:32.565Z,2.63
2022-08-18T20:42:01.365Z,3.13
2022-08-18T20:49:39.875Z,2.72
2022-08-18T20:52:24.235Z,2.20
2022-08-18T20:55:21.271Z,2.25
2022-08-18T20:57:53.562Z,2.42
2022-08-18T21:00:27.127Z,2.00
2022-08-18T21:02:59.583Z,1.85
2022-08-18T21:05:41.019Z,2.30
2022-08-18T21:08:16.222Z,2.10
2022-08-18T21:11:19.618Z,2.88
2022-08-18T21:14:00.334Z,2.45
2022-08-18T21:16:38.276Z,2.45
2022-08-18T21:19:27.734Z,2.67
2022-08-18T21:21:58.750Z,2.97
2022-08-18T21:24:38.945Z,3.17
2022-08-18T21:27:11.681Z,2.95
2022-08-18T21:29:46.795Z,2.72
2022-08-18T21:32:33.602Z,3.43
2022-08-18T21:35:10.088Z,3.42
2022-08-18T21:37:41.479Z,3.87
2022-08-18T21:40:08.952Z,3.78
2022-08-18T21:42:39.398Z,10.05
2022-08-18T21:45:13.181Z,9.30
2022-08-18T21:47:48.526Z,6.20
2022-08-18T21:50:24.878Z,4.03
2022-08-18T21:52:59.331Z,3.00
2022-08-18T21:55:32.350Z,4.22
2022-08-18T21:58:16.440Z,3.90
2022-08-18T22:00:47.230Z,3.70
2022-08-18T22:03:26.338Z,3.63
2022-08-18T22:06:16.206Z,3.80
2022-08-18T22:08:49.898Z,3.13
2022-08-18T22:12:00.916Z,3.72
2022-08-18T22:17:31.958Z,3.53
2022-08-18T22:20:37.478Z,4.32
2022-08-18T22:23:32.205Z,3.50
2022-08-18T22:26:30.311Z,3.28
2022-08-18T22:29:03.102Z,3.33
2022-08-18T22:31:55.008Z,3.25
2022-08-18T22:34:27.248Z,3.33
2022-08-18T22:37:01.269Z,3.25
2022-08-18T22:39:39.388Z,3.40
2022-08-18T22:42:07.214Z,3.53
2022-08-18T22:44:34.354Z,3.15
2022-08-18T22:47:03.395Z,5.35
2022-08-18T22:49:30.716Z,3.20
2022-08-18T22:51:58.002Z,5.20
2022-08-18T22:54:25.599Z,5.90
2022-08-18T22:56:53.799Z,5.88
2022-08-18T22:59:26.752Z,4.28
2022-08-18T23:01:55.031Z,3.58
2022-08-18T23:04:24.829Z,3.57
2022-08-18T23:06:53.882Z,4.25
2022-08-18T23:09:29.818Z,4.03
2022-08-18T23:12:04.657Z,4.25
2022-08-18T23:14:33.137Z,4.57
2022-08-18T23:17:02.149Z,3.45
2022-08-18T23:19:31.644Z,4.85
2022-08-18T23:22:00.183Z,4.35
2022-08-18T23:24:28.029Z,5.00
2022-08-18T23:26:55.180Z,5.28
2022-08-18T23:29:22.519Z,3.63
2022-08-18T23:31:50.762Z,4.60
2022-08-18T23:34:19.964Z,4.13
2022-08-18T23:37:01.680Z,4.10
2022-08-18T23:39:31.377Z,4.00
2022-08-18T23:41:59.814Z,3.90
2022-08-18T23:44:28.054Z,4.10
2022-08-18T23:46:58.164Z,4.05
2022-08-18T23:49:30.466Z,4.85
2022-08-18T23:51:59.194Z,4.60
2022-08-18T23:59:24.195Z,3.20
